createdAt,value
2023-02-23T00:03:56.546Z,54.28
2023-02-23T00:07:58.273Z,59.80
2023-02-23T00:11:59.885Z,57.83
2023-02-23T00:16:14.329Z,54.72
2023-02-23T00:20:16.518Z,54.25
2023-02-23T00:24:21.698Z,53.40
2023-02-23T00:28:23.391Z,57.62
2023-02-23T00:32:25.349Z,61.33
2023-02-23T00:36:29.871Z,60.60
2023-02-23T00:40:31.500Z,53.60
2023-02-23T00:44:33.954Z,52.08
2023-02-23T00:48:35.659Z,51.97
2023-02-23T00:52:37.323Z,55.35
2023-02-23T00:56:39.794Z,52.10
2023-02-23T01:00:42.136Z,54.60
2023-02-23T01:04:43.787Z,56.58
2023-02-23T01:08:50.829Z,57.75
2023-02-23T01:12:52.789Z,57.92
2023-02-23T01:16:54.864Z,62.80
2023-02-23T01:20:56.479Z,59.40
2023-02-23T01:24:58.165Z,57.17
2023-02-23T01:29:12.173Z,51.42
2023-02-23T01:33:13.962Z,58.17
2023-02-23T01:37:15.601Z,56.55
2023-02-23T01:41:17.839Z,61.40
2023-02-23T01:45:28.046Z,52.95
2023-02-23T01:49:31.912Z,53.30
2023-02-23T01:53:39.831Z,57.90
2023-02-23T01:57:42.213Z,57.40
2023-02-23T02:01:44.849Z,55.83
2023-02-23T02:05:50.397Z,57.72
2023-02-23T02:10:13.921Z,52.30
2023-02-23T02:14:28.326Z,52.95
2023-02-23T02:18:49.332Z,54.92
2023-02-23T02:23:27.203Z,52.67
2023-02-23T02:27:50.423Z,56.67
2023-02-23T02:31:58.680Z,55.55
2023-02-23T02:36:06.129Z,61.63
2023-02-23T02:40:28.057Z,58.75
2023-02-23T02:44:38.381Z,62.35
2023-02-23T02:49:03.697Z,59.97
2023-02-23T02:53:08.887Z,60.72
2023-02-23T02:57:12.627Z,63.90
2023-02-23T03:01:35.270Z,59.40
2023-02-23T03:06:04.092Z,60.25
2023-02-23T03:10:49.228Z,61.95
2023-02-23T03:15:25.913Z,63.25
2023-02-23T03:19:52.868Z,68.28
2023-02-23T03:24:25.888Z,68.90
2023-02-23T03:29:01.598Z,66.95
2023-02-23T03:33:37.888Z,68.53
2023-02-23T03:38:24.279Z,66.70
2023-02-23T03:42:51.108Z,67.75
2023-02-23T03:47:12.601Z,73.95
2023-02-23T03:51:34.559Z,72.85
2023-02-23T03:55:58.277Z,69.35
2023-02-23T04:00:23.841Z,70.45
2023-02-23T04:04:46.237Z,74.57
2023-02-23T04:09:09.278Z,73.72
2023-02-23T04:13:22.584Z,72.62
2023-02-23T04:17:28.492Z,77.55
2023-02-23T04:21:30.949Z,75.43
2023-02-23T04:25:32.624Z,81.85
2023-02-23T04:29:34.254Z,83.12
2023-02-23T04:33:35.911Z,77.10
2023-02-23T04:37:37.714Z,80.85
2023-02-23T04:41:39.323Z,82.90
2023-02-23T04:45:41.844Z,77.03
2023-02-23T04:49:43.951Z,81.90
2023-02-23T04:53:45.592Z,79.12
2023-02-23T04:57:47.671Z,75.22
2023-02-23T05:01:49.336Z,77.32
2023-02-23T05:05:50.959Z,73.22
2023-02-23T05:09:52.790Z,76.18
2023-02-23T05:13:54.542Z,71.80
2023-02-23T05:17:56.219Z,72.78
2023-02-23T05:21:57.916Z,75.85
2023-02-23T05:26:06.091Z,79.47
2023-02-23T05:30:09.811Z,76.47
2023-02-23T05:34:11.711Z,82.40
2023-02-23T05:38:13.444Z,78.10
2023-02-23T05:42:15.124Z,77.12
2023-02-23T05:46:21.249Z,77.28
2023-02-23T05:50:22.895Z,77.82
2023-02-23T05:54:24.517Z,84.22
2023-02-23T05:58:26.236Z,82.75
2023-02-23T06:02:27.928Z,76.05
2023-02-23T06:06:29.604Z,78.93
2023-02-23T06:10:31.261Z,84.13
2023-02-23T06:14:33.328Z,86.22
2023-02-23T06:18:35.360Z,88.50
2023-02-23T06:22:37.069Z,87.65
2023-02-23T06:26:38.901Z,84.53
2023-02-23T06:30:40.701Z,87.50
2023-02-23T06:34:42.318Z,91.82
2023-02-23T06:38:44.896Z,87.05
2023-02-23T06:42:47.147Z,89.43
2023-02-23T06:46:48.832Z,88.03
2023-02-23T06:50:50.481Z,86.93
2023-02-23T06:54:52.251Z,84.87
2023-02-23T06:58:53.953Z,87.03
2023-02-23T07:02:57.697Z,85.15
2023-02-23T07:06:59.608Z,79.65
2023-02-23T07:11:13.293Z,81.80
2023-02-23T07:15:17.597Z,80.20
2023-02-23T07:19:19.280Z,89.53
2023-02-23T07:23:22.166Z,85.38
2023-02-23T07:27:23.863Z,84.85
2023-02-23T07:31:26.183Z,89.82
2023-02-23T07:35:27.840Z,88.25
2023-02-23T07:39:29.937Z,84.32
2023-02-23T07:43:31.905Z,92.05
2023-02-23T07:47:34.624Z,84.65
2023-02-23T07:51:36.298Z,82.62
2023-02-23T07:55:38.651Z,85.50
2023-02-23T07:59:40.330Z,81.53
2023-02-23T08:03:49.185Z,82.07
2023-02-23T08:07:50.947Z,82.80
2023-02-23T08:11:52.580Z,86.82
2023-02-23T08:15:54.192Z,87.55
2023-02-23T08:19:55.805Z,81.80
2023-02-23T08:23:58.136Z,82.18
2023-02-23T08:28:04.776Z,79.75
2023-02-23T08:32:06.661Z,79.47
2023-02-23T08:36:08.927Z,77.00
2023-02-23T08:40:15.313Z,79.15
2023-02-23T08:44:17.008Z,77.93
2023-02-23T08:48:18.668Z,73.68
2023-02-23T08:52:21.051Z,75.55
2023-02-23T08:56:25.139Z,78.28
2023-02-23T09:00:26.921Z,82.35
2023-02-23T09:04:31.007Z,77.53
2023-02-23T09:08:32.698Z,81.72
2023-02-23T09:12:34.352Z,76.18
2023-02-23T09:16:36.649Z,72.60
2023-02-23T09:20:41.573Z,62.13
2023-02-23T09:24:43.271Z,71.32
2023-02-23T09:28:45.462Z,59.15
2023-02-23T09:32:48.088Z,63.08
2023-02-23T09:36:49.942Z,67.07
2023-02-23T09:40:54.349Z,70.85
2023-02-23T09:45:23.659Z,63.30
2023-02-23T09:49:29.634Z,61.40
2023-02-23T09:53:51.099Z,67.78
2023-02-23T09:57:53.741Z,69.43
2023-02-23T10:02:02.159Z,67.93
2023-02-23T10:06:09.273Z,67.65
2023-02-23T10:10:28.092Z,59.67
2023-02-23T10:14:57.668Z,65.10
2023-02-23T10:19:09.426Z,64.62
2023-02-23T10:23:21.628Z,64.68
2023-02-23T10:27:30.302Z,62.15
2023-02-23T10:31:45.518Z,64.57
2023-02-23T10:35:47.763Z,67.65
2023-02-23T10:39:51.353Z,69.03
2023-02-23T10:43:53.091Z,68.60
2023-02-23T10:48:03.908Z,65.03
2023-02-23T10:52:07.289Z,67.35
2023-02-23T10:56:14.699Z,68.55
2023-02-23T11:00:16.911Z,59.20
2023-02-23T11:04:27.611Z,61.05
2023-02-23T11:08:35.855Z,61.15
2023-02-23T11:12:41.702Z,60.97
2023-02-23T11:16:43.599Z,58.60
2023-02-23T11:20:45.383Z,57.45
2023-02-23T11:24:47.113Z,61.08
2023-02-23T11:28:54.309Z,59.25
2023-02-23T11:37:23.962Z,52.83
2023-02-23T11:41:25.599Z,53.72
2023-02-23T11:45:33.474Z,57.47
2023-02-23T11:49:36.877Z,57.75
2023-02-23T11:53:46.350Z,59.70
2023-02-23T11:57:50.210Z,54.67
2023-02-23T12:01:54.795Z,50.42
2023-02-23T12:05:59.156Z,48.47
2023-02-23T12:10:18.804Z,50.42
2023-02-23T12:14:39.997Z,47.00
2023-02-23T12:18:56.507Z,49.90
2023-02-23T12:23:03.587Z,46.17
2023-02-23T12:27:12.757Z,46.30
2023-02-23T12:31:31.019Z,47.62
2023-02-23T12:35:54.534Z,47.55
2023-02-23T12:40:16.024Z,44.40
2023-02-23T12:44:35.519Z,44.78
2023-02-23T12:48:48.541Z,42.25
2023-02-23T12:52:54.553Z,39.47
2023-02-23T12:57:21.137Z,36.33
2023-02-23T13:01:39.343Z,33.38
2023-02-23T13:06:02.825Z,37.17
2023-02-23T13:10:16.401Z,37.42
2023-02-23T13:14:27.027Z,33.63
2023-02-23T13:18:45.207Z,31.48
2023-02-23T13:23:11.592Z,35.72
2023-02-23T13:27:22.093Z,30.65
2023-02-23T13:31:33.599Z,31.85
2023-02-23T13:35:38.293Z,30.92
2023-02-23T13:39:46.022Z,31.37
2023-02-23T13:44:12.950Z,28.48
2023-02-23T13:48:32.387Z,30.17
2023-02-23T13:52:40.302Z,27.50
2023-02-23T13:56:49.604Z,27.20
2023-02-23T14:01:05.165Z,30.95
2023-02-23T14:05:28.943Z,30.45
2023-02-23T14:09:34.740Z,33.33
2023-02-23T14:13:59.541Z,27.50
2023-02-23T14:18:04.587Z,29.52
2023-02-23T14:22:12.352Z,28.77
2023-02-23T14:26:44.204Z,28.20
2023-02-23T14:30:58.956Z,24.50
2023-02-23T14:35:02.181Z,24.83
2023-02-23T14:39:10.289Z,27.40
2023-02-23T14:43:42.728Z,28.05
2023-02-23T14:47:47.738Z,27.67
2023-02-23T14:51:53.572Z,27.42
2023-02-23T14:55:57.904Z,29.92
2023-02-23T15:00:02.420Z,34.38
2023-02-23T15:04:17.262Z,34.63
2023-02-23T15:08:23.100Z,35.75
2023-02-23T15:12:30.085Z,40.92
2023-02-23T15:16:35.217Z,44.72
2023-02-23T15:20:36.931Z,39.53
2023-02-23T15:24:44.449Z,45.40
2023-02-23T15:28:47.079Z,39.65
2023-02-23T15:32:49.239Z,43.38
2023-02-23T15:36:57.121Z,41.88
2023-02-23T15:41:06.057Z,36.63
2023-02-23T15:45:28.381Z,48.55
2023-02-23T15:49:37.613Z,43.22
2023-02-23T15:53:41.160Z,40.15
2023-02-23T15:57:52.405Z,43.03
2023-02-23T16:01:55.125Z,42.60
2023-02-23T16:06:06.555Z,39.40
2023-02-23T16:10:27.704Z,39.55
2023-02-23T16:14:35.086Z,39.22
2023-02-23T16:18:40.844Z,39.83
2023-02-23T16:22:45.947Z,38.00
2023-02-23T16:26:51.956Z,38.80
2023-02-23T16:31:02.559Z,44.97
2023-02-23T16:35:15.636Z,33.97
2023-02-23T16:39:17.382Z,39.33
2023-02-23T16:43:19.211Z,35.85
2023-02-23T16:47:23.728Z,37.83
2023-02-23T16:51:27.732Z,39.50
2023-02-23T16:55:29.889Z,40.17
2023-02-23T16:59:32.442Z,39.30
2023-02-23T17:03:36.007Z,35.85
2023-02-23T17:07:39.950Z,35.97
2023-02-23T17:11:43.771Z,36.00
2023-02-23T17:15:51.749Z,34.95
2023-02-23T17:19:53.459Z,37.38
2023-02-23T17:24:02.466Z,32.47
2023-02-23T17:28:04.384Z,35.95
2023-02-23T17:32:06.468Z,33.15
2023-02-23T17:36:13.013Z,33.42
2023-02-23T17:40:36.136Z,35.43
2023-02-23T17:44:37.815Z,31.95
2023-02-23T17:48:40.566Z,34.20
2023-02-23T17:52:42.364Z,32.00
2023-02-23T17:56:44.582Z,33.63
2023-02-23T18:00:46.773Z,28.90
2023-02-23T18:04:49.816Z,29.90
2023-02-23T18:08:51.412Z,27.40
2023-02-23T18:12:53.768Z,33.83
2023-02-23T18:16:55.795Z,29.12
2023-02-23T18:20:59.557Z,32.28
2023-02-23T18:25:01.278Z,32.47
2023-02-23T18:29:04.687Z,29.02
2023-02-23T18:33:07.468Z,30.17
2023-02-23T18:37:09.879Z,29.60
2023-02-23T18:41:11.754Z,27.50
2023-02-23T18:45:14.495Z,33.00
2023-02-23T18:49:18.033Z,30.67
2023-02-23T18:53:19.635Z,28.77
2023-02-23T18:57:21.283Z,30.10
2023-02-23T19:01:28.798Z,29.23
2023-02-23T19:05:30.562Z,32.88
2023-02-23T19:09:32.434Z,31.77
2023-02-23T19:13:34.200Z,35.25
2023-02-23T19:17:36.548Z,28.45
2023-02-23T19:21:38.986Z,24.52
2023-02-23T19:25:40.858Z,33.45
2023-02-23T19:29:42.694Z,25.85
2023-02-23T19:33:44.447Z,32.20
2023-02-23T19:37:51.526Z,27.73
2023-02-23T19:41:53.195Z,31.00
2023-02-23T19:45:54.912Z,35.47
2023-02-23T19:49:56.694Z,32.22
2023-02-23T19:53:59.040Z,28.95
2023-02-23T19:58:00.714Z,26.55
2023-02-23T20:02:02.397Z,31.15
2023-02-23T20:06:06.603Z,26.50
2023-02-23T20:10:10.062Z,27.73
2023-02-23T20:14:12.333Z,28.30
2023-02-23T20:18:14.029Z,29.08
2023-02-23T20:22:15.853Z,32.10
2023-02-23T20:26:21.787Z,38.38
2023-02-23T20:30:23.948Z,32.63
2023-02-23T20:34:25.805Z,38.58
2023-02-23T20:38:27.474Z,30.62
2023-02-23T20:42:29.223Z,33.85
2023-02-23T20:46:31.512Z,31.77
2023-02-23T20:50:34.037Z,26.00
2023-02-23T20:54:36.514Z,32.30
2023-02-23T20:58:39.535Z,29.98
2023-02-23T21:02:41.436Z,29.60
2023-02-23T21:06:43.086Z,29.70
2023-02-23T21:10:45.467Z,31.33
2023-02-23T21:14:48.580Z,29.42
2023-02-23T21:18:54.855Z,31.25
2023-02-23T21:22:56.864Z,35.27
2023-02-23T21:26:58.505Z,28.98
2023-02-23T21:31:00.212Z,31.58
2023-02-23T21:35:02.014Z,27.35
2023-02-23T21:39:04.724Z,26.17
2023-02-23T21:43:08.979Z,16.70
2023-02-23T21:47:10.930Z,17.50
2023-02-23T21:51:15.501Z,17.67
2023-02-23T21:55:21.780Z,19.25
2023-02-23T21:59:23.872Z,18.15
2023-02-23T22:03:27.103Z,26.67
2023-02-23T22:07:29.471Z,17.80
2023-02-23T22:11:31.220Z,23.77
2023-02-23T22:15:33.731Z,18.08
2023-02-23T22:19:35.387Z,18.17
2023-02-23T22:23:38.236Z,19.02
2023-02-23T22:27:42.659Z,19.60
2023-02-23T22:31:44.623Z,18.42
2023-02-23T22:35:46.660Z,17.50
2023-02-23T22:39:48.762Z,30.80
2023-02-23T22:43:50.443Z,28.30
2023-02-23T22:47:52.098Z,19.15
2023-02-23T22:51:53.720Z,29.87
2023-02-23T22:55:56.220Z,24.65
2023-02-23T23:00:05.808Z,19.67
2023-02-23T23:04:10.359Z,24.75
2023-02-23T23:08:13.322Z,19.90
2023-02-23T23:12:17.932Z,21.35
2023-02-23T23:16:30.953Z,21.65
2023-02-23T23:20:33.777Z,21.20
2023-02-23T23:24:35.386Z,20.95
2023-02-23T23:28:40.248Z,21.17
2023-02-23T23:32:41.952Z,31.27
2023-02-23T23:36:49.062Z,18.10
2023-02-23T23:40:53.762Z,23.87
2023-02-23T23:44:56.860Z,19.73
2023-02-23T23:49:02.053Z,20.52
2023-02-23T23:53:04.433Z,26.37
2023-02-23T23:57:06.970Z,20.17
